createdAt,value
2022-09-04T00:00:21.391Z,42.11
2022-09-04T00:02:55.379Z,42.36
2022-09-04T00:05:31.055Z,42.29
2022-09-04T00:08:05.132Z,42.32
2022-09-04T00:10:46.044Z,42.07
2022-09-04T00:13:21.640Z,42.12
2022-09-04T00:15:54.381Z,42.06
2022-09-04T00:18:30.785Z,42.27
2022-09-04T00:21:03.475Z,41.95
2022-09-04T00:23:38.984Z,42.05
2022-09-04T00:26:38.580Z,42.06
2022-09-04T00:29:14.235Z,42.13
2022-09-04T00:32:06.883Z,42.29
2022-09-04T00:35:06.042Z,42.23
2022-09-04T00:38:11.505Z,42.02
2022-09-04T00:40:44.634Z,42.12
2022-09-04T00:43:30.582Z,41.94
2022-09-04T00:46:15.735Z,42.04
2022-09-04T00:51:17.736Z,42.10
2022-09-04T00:54:06.355Z,42.22
2022-09-04T00:57:24.088Z,42.04
2022-09-04T01:00:11.152Z,42.39
2022-09-04T01:03:10.060Z,42.28
2022-09-04T01:06:16.542Z,42.47
2022-09-04T01:08:59.969Z,42.52
2022-09-04T01:11:29.516Z,42.48
2022-09-04T01:14:10.735Z,42.43
2022-09-04T01:16:46.364Z,42.61
2022-09-04T01:19:30.277Z,42.58
2022-09-04T01:22:36.493Z,42.89
2022-09-04T01:25:05.869Z,42.77
2022-09-04T01:28:00.969Z,42.58
2022-09-04T01:30:31.869Z,42.79
2022-09-04T01:33:08.164Z,42.83
2022-09-04T01:38:14.951Z,42.61
2022-09-04T01:40:53.075Z,42.73
2022-09-04T01:43:21.760Z,42.92
2022-09-04T01:46:26.423Z,42.63
2022-09-04T01:49:05.433Z,42.92
2022-09-04T01:51:43.583Z,42.55
2022-09-04T01:56:34.961Z,42.56
2022-09-04T01:59:38.060Z,42.87
2022-09-04T02:02:10.623Z,42.91
2022-09-04T02:05:09.450Z,42.77
2022-09-04T02:07:53.347Z,42.57
2022-09-04T02:10:41.342Z,42.76
2022-09-04T02:13:23.401Z,43.01
2022-09-04T02:16:23.157Z,42.60
2022-09-04T02:18:49.785Z,42.77
2022-09-04T02:21:31.548Z,42.44
2022-09-04T02:24:05.009Z,42.41
2022-09-04T02:26:47.383Z,42.50
2022-09-04T02:29:40.697Z,42.56
2022-09-04T02:32:25.728Z,42.39
2022-09-04T02:35:02.787Z,42.72
2022-09-04T02:37:42.185Z,42.72
2022-09-04T02:40:37.667Z,42.52
2022-09-04T02:43:19.692Z,42.42
2022-09-04T02:46:18.956Z,42.25
2022-09-04T02:48:48.437Z,42.45
2022-09-04T02:51:46.245Z,42.56
2022-09-04T02:54:37.469Z,42.37
2022-09-04T02:57:17.647Z,42.70
2022-09-04T03:00:21.415Z,42.22
2022-09-04T03:03:25.864Z,42.49
2022-09-04T03:06:02.509Z,42.42
2022-09-04T03:08:41.419Z,42.46
2022-09-04T03:11:23.569Z,42.21
2022-09-04T03:13:58.889Z,42.15
2022-09-04T03:16:35.160Z,42.32
2022-09-04T03:19:20.750Z,42.54
2022-09-04T03:22:14.959Z,42.15
2022-09-04T03:25:00.290Z,42.13
2022-09-04T03:27:30.554Z,42.32
2022-09-04T03:30:12.196Z,42.38
2022-09-04T03:32:56.966Z,42.37
2022-09-04T03:35:33.700Z,42.13
2022-09-04T03:38:08.944Z,42.35
2022-09-04T03:40:43.085Z,42.11
2022-09-04T03:43:27.957Z,42.27
2022-09-04T03:45:57.331Z,42.27
2022-09-04T03:48:42.550Z,42.27
2022-09-04T03:51:25.722Z,42.21
2022-09-04T03:54:01.964Z,42.23
2022-09-04T03:56:54.573Z,42.07
2022-09-04T03:59:30.476Z,42.22
2022-09-04T04:02:09.024Z,42.19
2022-09-04T04:05:11.608Z,42.33
2022-09-04T04:08:17.226Z,42.20
2022-09-04T04:10:52.668Z,42.16
2022-09-04T04:13:59.675Z,42.13
2022-09-04T04:16:44.484Z,42.04
2022-09-04T04:19:33.751Z,42.31
2022-09-04T04:22:00.273Z,41.96
2022-09-04T04:24:48.231Z,42.03
2022-09-04T04:27:33.493Z,42.17
2022-09-04T04:30:14.115Z,42.13
2022-09-04T04:32:59.279Z,41.96
2022-09-04T04:35:28.686Z,42.11
2022-09-04T04:38:22.730Z,42.00
2022-09-04T04:41:10.039Z,42.12
2022-09-04T04:44:11.112Z,41.93
2022-09-04T04:47:02.780Z,41.87
2022-09-04T04:49:39.032Z,41.95
2022-09-04T04:52:23.441Z,42.17
2022-09-04T04:54:52.716Z,41.98
2022-09-04T04:57:39.549Z,41.85
2022-09-04T05:00:27.570Z,41.66
2022-09-04T05:03:16.124Z,42.10
2022-09-04T05:06:03.293Z,41.78
2022-09-04T05:08:52.961Z,41.88
2022-09-04T05:11:22.505Z,42.05
2022-09-04T05:14:07.959Z,41.94
2022-09-04T05:17:27.276Z,42.06
2022-09-04T05:20:20.329Z,41.92
2022-09-04T05:23:04.028Z,42.27
2022-09-04T05:25:40.315Z,42.15
2022-09-04T05:28:18.929Z,42.14
2022-09-04T05:30:45.557Z,42.11
2022-09-04T05:33:25.507Z,42.11
2022-09-04T05:36:05.127Z,42.36
2022-09-04T05:38:55.790Z,42.10
2022-09-04T05:41:38.435Z,42.30
2022-09-04T05:44:07.916Z,42.53
2022-09-04T05:46:56.045Z,42.57
2022-09-04T05:49:41.463Z,42.51
2022-09-04T05:52:40.460Z,42.69
2022-09-04T05:55:38.413Z,42.51
2022-09-04T05:58:17.715Z,42.86
2022-09-04T06:00:50.153Z,43.16
2022-09-04T06:03:34.749Z,43.36
2022-09-04T06:06:01.303Z,43.25
2022-09-04T06:08:52.660Z,43.45
2022-09-04T06:11:19.195Z,43.33
2022-09-04T06:13:58.409Z,43.23
2022-09-04T06:16:43.374Z,42.99
2022-09-04T06:19:24.056Z,43.07
2022-09-04T06:22:09.091Z,42.87
2022-09-04T06:24:57.852Z,43.16
2022-09-04T06:27:40.808Z,43.11
2022-09-04T06:30:10.520Z,43.06
2022-09-04T06:32:49.157Z,43.23
2022-09-04T06:35:28.335Z,43.11
2022-09-04T06:38:07.073Z,43.10
2022-09-04T06:40:45.672Z,43.38
2022-09-04T06:43:19.861Z,43.06
2022-09-04T06:46:40.127Z,43.06
2022-09-04T06:49:21.911Z,42.99
2022-09-04T06:52:19.967Z,43.04
2022-09-04T06:55:04.988Z,42.60
2022-09-04T06:57:31.620Z,42.24
2022-09-04T07:00:15.620Z,41.58
2022-09-04T07:03:18.311Z,40.94
2022-09-04T07:05:54.559Z,40.92
2022-09-04T07:08:29.096Z,40.45
2022-09-04T07:11:17.393Z,40.55
2022-09-04T07:14:18.388Z,40.25
2022-09-04T07:17:12.682Z,40.38
2022-09-04T07:19:57.672Z,40.20
2022-09-04T07:22:50.254Z,40.44
2022-09-04T07:25:54.108Z,40.36
2022-09-04T07:28:44.699Z,40.57
2022-09-04T07:31:13.713Z,40.33
2022-09-04T07:33:52.748Z,40.51
2022-09-04T07:36:38.384Z,40.55
2022-09-04T07:39:19.499Z,40.55
2022-09-04T07:41:46.178Z,40.70
2022-09-04T07:44:32.104Z,40.74
2022-09-04T07:47:12.581Z,40.96
2022-09-04T07:49:45.824Z,40.73
2022-09-04T07:52:20.023Z,41.03
2022-09-04T07:55:01.894Z,41.02
2022-09-04T07:57:57.609Z,41.05
2022-09-04T08:00:25.451Z,41.19
2022-09-04T08:03:17.760Z,41.14
2022-09-04T08:05:49.184Z,41.33
2022-09-04T08:08:44.409Z,41.42
2022-09-04T08:11:25.593Z,41.12
2022-09-04T08:14:23.203Z,41.23
2022-09-04T08:17:00.655Z,41.47
2022-09-04T08:20:04.206Z,41.38
2022-09-04T08:22:57.428Z,41.53
2022-09-04T08:25:42.937Z,41.44
2022-09-04T08:29:00.252Z,41.48
2022-09-04T08:31:32.028Z,41.44
2022-09-04T08:34:08.846Z,41.43
2022-09-04T08:37:00.752Z,41.47
2022-09-04T08:39:54.854Z,41.55
2022-09-04T08:42:59.035Z,41.49
2022-09-04T08:45:44.464Z,41.44
2022-09-04T08:48:52.550Z,41.56
2022-09-04T08:51:44.953Z,41.63
2022-09-04T08:54:32.833Z,41.46
2022-09-04T08:57:08.348Z,41.83
2022-09-04T08:59:34.988Z,41.73
2022-09-04T09:02:29.908Z,41.75
2022-09-04T09:05:19.154Z,41.71
2022-09-04T09:08:00.079Z,41.67
2022-09-04T09:10:47.910Z,41.53
2022-09-04T09:13:32.990Z,41.72
2022-09-04T09:16:21.496Z,41.80
2022-09-04T09:19:07.006Z,41.71
2022-09-04T09:21:45.652Z,41.80
2022-09-04T09:24:43.181Z,41.77
2022-09-04T09:27:43.921Z,41.70
2022-09-04T09:30:13.500Z,41.99
2022-09-04T09:32:53.562Z,41.88
2022-09-04T09:35:31.881Z,41.73
2022-09-04T09:38:29.694Z,41.71
2022-09-04T09:41:00.420Z,41.70
2022-09-04T09:43:29.884Z,41.82
2022-09-04T09:46:08.890Z,41.94
2022-09-04T09:49:14.008Z,41.82
2022-09-04T09:52:18.774Z,41.63
2022-09-04T09:55:00.175Z,41.76
2022-09-04T09:58:20.133Z,41.77
2022-09-04T10:01:14.225Z,41.95
2022-09-04T10:03:46.535Z,41.90
2022-09-04T10:06:28.249Z,41.94
2022-09-04T10:09:16.311Z,42.08
2022-09-04T10:11:45.895Z,42.04
2022-09-04T10:14:36.296Z,42.23
2022-09-04T10:17:16.057Z,42.04
2022-09-04T10:19:46.345Z,42.12
2022-09-04T10:22:24.813Z,41.99
2022-09-04T10:25:32.724Z,42.05
2022-09-04T10:28:11.709Z,41.97
2022-09-04T10:31:07.231Z,41.82
2022-09-04T10:34:01.053Z,42.07
2022-09-04T10:36:33.424Z,42.02
2022-09-04T10:39:27.572Z,42.02
2022-09-04T10:42:31.668Z,41.97
2022-09-04T10:45:17.113Z,42.10
2022-09-04T10:48:13.157Z,41.82
2022-09-04T10:50:58.597Z,41.79
2022-09-04T10:53:43.465Z,41.89
2022-09-04T10:56:29.900Z,41.77
2022-09-04T10:59:21.179Z,41.93
2022-09-04T11:01:55.949Z,42.03
2022-09-04T11:04:36.521Z,42.26
2022-09-04T11:07:03.237Z,42.31
2022-09-04T11:10:00.740Z,42.13
2022-09-04T11:12:36.128Z,42.30
2022-09-04T11:15:07.761Z,42.35
2022-09-04T11:17:59.353Z,42.51
2022-09-04T11:20:25.879Z,42.56
2022-09-04T11:23:01.281Z,42.39
2022-09-04T11:26:05.945Z,42.48
2022-09-04T11:29:02.068Z,42.50
2022-09-04T11:31:28.678Z,42.26
2022-09-04T11:34:33.776Z,42.40
2022-09-04T11:37:06.370Z,42.61
2022-09-04T11:39:51.772Z,42.63
2022-09-04T11:42:30.940Z,42.60
2022-09-04T11:45:21.229Z,42.85
2022-09-04T11:47:51.356Z,42.90
2022-09-04T11:50:47.451Z,42.74
2022-09-04T11:53:31.973Z,42.87
2022-09-04T11:56:26.247Z,42.71
2022-09-04T11:59:08.180Z,42.74
2022-09-04T12:01:52.394Z,42.61
2022-09-04T12:04:33.848Z,42.70
2022-09-04T12:07:19.167Z,42.90
2022-09-04T12:10:11.161Z,42.97
2022-09-04T12:13:00.532Z,43.04
2022-09-04T12:15:55.177Z,42.94
2022-09-04T12:18:58.402Z,42.83
2022-09-04T12:22:00.479Z,42.89
2022-09-04T12:24:57.953Z,42.82
2022-09-04T12:27:44.853Z,42.75
2022-09-04T12:30:23.936Z,42.83
2022-09-04T12:33:00.143Z,42.83
2022-09-04T12:36:14.518Z,42.70
2022-09-04T12:39:03.168Z,42.93
2022-09-04T12:41:35.457Z,42.95
2022-09-04T12:44:35.258Z,42.89
2022-09-04T12:47:26.042Z,43.07
2022-09-04T12:50:00.251Z,43.22
2022-09-04T12:52:57.208Z,43.20
2022-09-04T12:56:05.722Z,43.36
2022-09-04T12:58:34.930Z,43.45
2022-09-04T13:01:21.357Z,43.48
2022-09-04T13:04:13.581Z,43.19
2022-09-04T13:06:59.365Z,43.66
2022-09-04T13:09:41.254Z,43.58
2022-09-04T13:12:28.712Z,43.61
2022-09-04T13:15:09.980Z,43.76
2022-09-04T13:18:34.742Z,43.48
2022-09-04T13:21:29.273Z,43.45
2022-09-04T13:24:09.007Z,43.46
2022-09-04T13:26:54.280Z,43.64
2022-09-04T13:29:35.262Z,43.72
2022-09-04T13:32:29.872Z,43.93
2022-09-04T13:35:36.411Z,43.88
2022-09-04T13:38:18.483Z,43.81
2022-09-04T13:41:13.448Z,43.96
2022-09-04T13:43:53.128Z,44.17
2022-09-04T13:46:31.239Z,44.16
2022-09-04T13:49:08.808Z,44.46
2022-09-04T13:51:39.009Z,44.60
2022-09-04T13:54:18.419Z,44.89
2022-09-04T13:56:55.765Z,44.98
2022-09-04T13:59:23.408Z,45.52
2022-09-04T14:01:54.813Z,45.53
2022-09-04T14:04:26.834Z,45.89
2022-09-04T14:07:10.613Z,46.08
2022-09-04T14:09:45.281Z,45.98
2022-09-04T14:12:35.447Z,46.42
2022-09-04T14:15:20.752Z,46.67
2022-09-04T14:18:16.272Z,46.53
2022-09-04T14:21:21.265Z,46.90
2022-09-04T14:24:03.343Z,47.05
2022-09-04T14:27:04.353Z,47.19
2022-09-04T14:29:55.685Z,47.10
2022-09-04T14:32:28.277Z,47.19
2022-09-04T14:35:34.274Z,47.18
2022-09-04T14:38:27.151Z,47.30
2022-09-04T14:41:11.863Z,47.34
2022-09-04T14:44:24.990Z,47.24
2022-09-04T14:47:27.593Z,47.71
2022-09-04T14:49:56.251Z,47.81
2022-09-04T14:52:35.475Z,47.89
2022-09-04T14:55:07.065Z,48.08
2022-09-04T14:57:42.954Z,48.13
2022-09-04T15:00:20.337Z,48.07
2022-09-04T15:02:49.939Z,48.28
2022-09-04T15:05:26.483Z,48.16
2022-09-04T15:07:57.255Z,48.16
2022-09-04T15:10:36.021Z,48.27
2022-09-04T15:13:20.910Z,48.22
2022-09-04T15:15:54.213Z,48.24
2022-09-04T15:18:31.664Z,48.22
2022-09-04T15:21:08.201Z,48.09
2022-09-04T15:23:48.065Z,48.07
2022-09-04T15:26:30.687Z,48.27
2022-09-04T15:29:29.810Z,48.09
2022-09-04T15:32:03.293Z,48.42
2022-09-04T15:34:33.512Z,48.31
2022-09-04T15:37:22.401Z,48.21
2022-09-04T15:39:54.506Z,47.97
2022-09-04T15:42:43.117Z,48.14
2022-09-04T15:45:18.576Z,48.03
2022-09-04T15:47:54.879Z,47.92
2022-09-04T15:50:28.212Z,47.72
2022-09-04T15:53:26.902Z,47.82
2022-09-04T15:56:20.295Z,47.80
2022-09-04T15:59:16.027Z,47.83
2022-09-04T16:02:00.465Z,47.89
2022-09-04T16:04:50.879Z,47.92
2022-09-04T16:07:46.646Z,48.37
2022-09-04T16:10:25.840Z,48.19
2022-09-04T16:13:07.990Z,48.29
2022-09-04T16:15:39.026Z,48.42
2022-09-04T16:18:38.136Z,48.53
2022-09-04T16:21:16.870Z,48.27
2022-09-04T16:23:43.549Z,48.66
2022-09-04T16:26:19.217Z,48.38
2022-09-04T16:28:52.630Z,48.72
2022-09-04T16:31:33.355Z,48.82
2022-09-04T16:34:16.068Z,48.71
2022-09-04T16:36:48.270Z,48.65
2022-09-04T16:39:43.657Z,48.93
2022-09-04T16:42:23.771Z,48.96
2022-09-04T16:45:06.012Z,48.77
2022-09-04T16:47:49.524Z,48.95
2022-09-04T16:50:27.190Z,48.89
2022-09-04T16:53:14.920Z,48.69
2022-09-04T16:55:52.363Z,48.80
2022-09-04T16:58:29.785Z,48.86
2022-09-04T17:01:15.534Z,48.92
2022-09-04T17:04:13.487Z,48.45
2022-09-04T17:07:08.567Z,48.77
2022-09-04T17:09:57.050Z,48.64
2022-09-04T17:12:53.795Z,48.64
2022-09-04T17:15:26.447Z,48.38
2022-09-04T17:17:54.495Z,48.34
2022-09-04T17:22:03.711Z,48.41
2022-09-04T17:29:03.907Z,48.35
2022-09-04T17:29:11.315Z,48.47
2022-09-04T17:29:46.236Z,48.65
2022-09-04T17:38:26.924Z,49.27
2022-09-04T17:40:37.044Z,49.80
2022-09-04T17:40:49.544Z,50.28
2022-09-04T17:42:09.256Z,50.67
2022-09-04T17:44:48.661Z,51.13
2022-09-04T17:47:28.404Z,51.35
2022-09-04T17:49:56.129Z,51.65
2022-09-04T17:52:29.897Z,51.83
2022-09-04T17:55:02.788Z,52.50
2022-09-04T17:57:42.639Z,52.69
2022-09-04T18:00:20.742Z,52.91
2022-09-04T18:02:59.535Z,52.80
2022-09-04T18:05:43.461Z,52.66
2022-09-04T18:08:24.946Z,52.76
2022-09-04T18:11:01.149Z,53.07
2022-09-04T18:13:40.266Z,53.24
2022-09-04T18:16:15.803Z,53.58
2022-09-04T18:19:13.151Z,54.07
2022-09-04T18:21:43.023Z,53.97
2022-09-04T18:24:22.357Z,53.64
2022-09-04T18:27:08.241Z,53.73
2022-09-04T18:32:15.507Z,53.61
2022-09-04T18:37:08.730Z,53.99
2022-09-04T18:37:27.098Z,54.55
2022-09-04T18:38:38.377Z,54.84
2022-09-04T18:44:59.843Z,54.91
2022-09-04T18:50:20.994Z,54.49
2022-09-04T18:50:28.925Z,54.18
2022-09-04T18:50:46.762Z,53.75
2022-09-04T18:52:55.369Z,53.50
2022-09-04T18:55:40.884Z,53.20
2022-09-04T18:58:07.431Z,53.07
2022-09-04T19:00:53.155Z,52.72
2022-09-04T19:03:40.647Z,52.66
2022-09-04T19:06:27.975Z,52.41
2022-09-04T19:11:21.763Z,52.06
2022-09-04T19:13:54.370Z,51.93
2022-09-04T19:16:35.434Z,51.79
2022-09-04T19:19:17.404Z,51.50
2022-09-04T19:21:57.953Z,51.40
2022-09-04T19:24:53.141Z,51.18
2022-09-04T19:27:43.916Z,51.21
2022-09-04T19:30:23.730Z,51.22
2022-09-04T19:33:15.938Z,51.14
2022-09-04T19:36:08.173Z,50.91
2022-09-04T19:45:56.029Z,50.75
2022-09-04T19:46:03.054Z,50.63
2022-09-04T19:46:13.318Z,50.55
2022-09-04T19:47:39.159Z,50.32
2022-09-04T19:53:21.234Z,50.35
2022-09-04T19:53:32.087Z,50.09
2022-09-04T19:56:04.132Z,50.01
2022-09-04T19:58:42.577Z,50.16
2022-09-04T20:01:17.145Z,49.97
2022-09-04T20:04:09.485Z,49.98
2022-09-04T20:06:45.570Z,49.76
2022-09-04T20:09:26.462Z,49.87
2022-09-04T20:12:01.594Z,49.57
2022-09-04T20:14:35.591Z,49.77
2022-09-04T20:17:22.742Z,49.73
2022-09-04T20:19:57.020Z,49.76
2022-09-04T20:22:26.825Z,50.10
2022-09-04T20:25:08.166Z,50.08
2022-09-04T20:27:48.332Z,49.88
2022-09-04T20:30:24.819Z,49.65
2022-09-04T20:32:57.591Z,49.65
2022-09-04T20:35:35.408Z,49.44
2022-09-04T20:40:46.329Z,48.83
2022-09-04T20:43:48.541Z,48.47
2022-09-04T20:50:40.203Z,48.26
2022-09-04T20:52:54.191Z,48.13
2022-09-04T20:52:57.008Z,48.37
2022-09-04T20:55:23.128Z,48.19
2022-09-04T21:03:13.511Z,48.24
2022-09-04T21:03:18.179Z,48.40
2022-09-04T21:04:41.978Z,48.50
2022-09-04T21:07:41.885Z,48.69
2022-09-04T21:10:41.521Z,49.27
2022-09-04T21:13:17.323Z,49.35
2022-09-04T21:16:01.666Z,50.38
2022-09-04T21:19:27.747Z,50.83
2022-09-04T21:22:05.290Z,51.15
2022-09-04T21:25:08.812Z,51.30
2022-09-04T21:28:20.059Z,51.01
2022-09-04T21:31:11.809Z,51.12
2022-09-04T21:33:42.541Z,50.98
2022-09-04T21:36:33.112Z,50.89
2022-09-04T21:39:37.016Z,50.73
2022-09-04T21:42:21.316Z,50.79
2022-09-04T21:45:03.043Z,50.66
2022-09-04T21:47:50.742Z,50.55
2022-09-04T21:50:38.227Z,50.45
2022-09-04T21:53:26.788Z,50.37
2022-09-04T21:59:50.622Z,50.18
2022-09-04T22:02:44.247Z,50.09
2022-09-04T22:03:01.240Z,50.06
2022-09-04T22:05:43.253Z,49.90
2022-09-04T22:13:29.247Z,49.98
2022-09-04T22:13:35.347Z,49.86
2022-09-04T22:14:16.015Z,50.00
2022-09-04T22:17:24.809Z,49.85
2022-09-04T22:20:21.141Z,49.67
2022-09-04T22:23:12.192Z,49.54
2022-09-04T22:26:14.878Z,49.40
2022-09-04T22:29:02.665Z,49.23
2022-09-04T22:32:20.210Z,49.15
2022-09-04T22:35:01.364Z,49.15
2022-09-04T22:38:05.501Z,48.92
2022-09-04T22:40:33.167Z,48.89
2022-09-04T22:43:12.864Z,48.78
2022-09-04T22:46:16.789Z,48.56
2022-09-04T22:49:12.760Z,48.54
2022-09-04T22:52:12.016Z,48.46
2022-09-04T22:54:38.613Z,48.46
2022-09-04T22:59:50.348Z,48.36
2022-09-04T23:03:09.221Z,48.20
2022-09-04T23:05:48.253Z,48.14
2022-09-04T23:13:43.117Z,48.21
2022-09-04T23:13:51.606Z,48.29
2022-09-04T23:14:48.890Z,47.94
2022-09-04T23:17:30.128Z,48.02
2022-09-04T23:26:33.254Z,47.96
2022-09-04T23:26:47.344Z,48.08
2022-09-04T23:26:59.978Z,48.08
2022-09-04T23:29:45.314Z,47.92
2022-09-04T23:32:43.911Z,47.78
2022-09-04T23:35:19.325Z,47.74
2022-09-04T23:38:07.036Z,47.77
2022-09-04T23:40:42.617Z,47.79
2022-09-04T23:43:40.422Z,47.70
2022-09-04T23:46:13.412Z,47.68
2022-09-04T23:48:48.904Z,47.66
2022-09-04T23:51:18.251Z,47.69
2022-09-04T23:53:44.853Z,47.58
2022-09-04T23:56:43.422Z,47.65
2022-09-04T23:59:38.312Z,47.46
